createdAt,value
2024-02-19T00:00:01.164Z,16.90
2024-02-19T00:02:27.686Z,16.20
2024-02-19T00:04:54.287Z,18.10
2024-02-19T00:07:21.979Z,15.40
2024-02-19T00:09:48.604Z,16.10
2024-02-19T00:12:15.363Z,17.70
2024-02-19T00:14:41.809Z,16.40
2024-02-19T00:17:09.197Z,14.70
2024-02-19T00:19:36.262Z,18.60
2024-02-19T00:22:02.944Z,15.80
2024-02-19T00:24:29.608Z,16.70
2024-02-19T00:26:56.179Z,19.20
2024-02-19T00:29:22.726Z,16.40
2024-02-19T00:31:49.350Z,16.00
2024-02-19T00:34:16.190Z,14.70
2024-02-19T00:39:09.152Z,17.40
2024-02-19T00:41:37.833Z,17.50
2024-02-19T00:44:04.488Z,19.20
2024-02-19T00:46:31.156Z,18.70
2024-02-19T00:48:57.782Z,20.80
2024-02-19T00:51:24.286Z,16.80
2024-02-19T00:53:50.778Z,16.60
2024-02-19T00:56:17.542Z,14.50
2024-02-19T00:58:44.026Z,18.30
2024-02-19T01:01:10.565Z,16.00
2024-02-19T01:03:37.153Z,15.10
2024-02-19T01:06:03.853Z,17.40
2024-02-19T01:08:30.406Z,14.30
2024-02-19T01:10:57.026Z,16.60
2024-02-19T01:13:23.564Z,15.80
2024-02-19T01:15:50.115Z,17.00
2024-02-19T01:18:18.023Z,15.30
2024-02-19T01:20:44.578Z,16.60
2024-02-19T01:23:11.070Z,15.10
2024-02-19T01:25:37.937Z,18.30
2024-02-19T01:28:05.207Z,16.70
2024-02-19T01:30:32.616Z,16.80
2024-02-19T01:33:01.103Z,15.80
2024-02-19T01:35:27.658Z,16.00
2024-02-19T01:37:54.133Z,14.60
2024-02-19T01:40:20.718Z,17.40
2024-02-19T01:42:47.942Z,16.10
2024-02-19T01:45:27.112Z,14.10
2024-02-19T01:47:59.449Z,15.10
2024-02-19T01:50:31.123Z,15.50
2024-02-19T01:53:02.071Z,15.80
2024-02-19T01:55:29.583Z,14.00
2024-02-19T01:57:58.795Z,14.80
2024-02-19T02:00:26.299Z,15.30
2024-02-19T02:02:53.063Z,16.90
2024-02-19T02:05:19.552Z,16.10
2024-02-19T02:07:46.161Z,17.20
2024-02-19T02:10:12.869Z,16.60
2024-02-19T02:12:39.450Z,17.50
2024-02-19T02:15:06.520Z,15.80
2024-02-19T02:17:33.913Z,14.60
2024-02-19T02:20:00.818Z,16.60
2024-02-19T02:22:27.469Z,16.20
2024-02-19T02:24:54.015Z,13.60
2024-02-19T02:27:20.563Z,14.70
2024-02-19T02:29:47.103Z,17.00
2024-02-19T02:32:13.624Z,18.50
2024-02-19T02:34:40.139Z,16.70
2024-02-19T02:37:06.768Z,16.80
2024-02-19T02:39:33.546Z,16.10
2024-02-19T02:42:00.092Z,17.40
2024-02-19T02:44:26.600Z,15.30
2024-02-19T02:46:53.188Z,17.80
2024-02-19T02:49:19.724Z,15.80
2024-02-19T02:51:46.308Z,16.90
2024-02-19T02:54:12.809Z,16.50
2024-02-19T02:56:39.244Z,13.90
2024-02-19T02:59:05.776Z,16.80
2024-02-19T03:01:33.436Z,14.70
2024-02-19T03:04:00.310Z,14.70
2024-02-19T03:06:27.251Z,15.60
2024-02-19T03:08:53.944Z,13.30
2024-02-19T03:11:20.587Z,15.90
2024-02-19T03:13:47.476Z,17.20
2024-02-19T03:16:16.772Z,15.90
2024-02-19T03:18:45.186Z,17.10
2024-02-19T03:21:16.625Z,15.60
2024-02-19T03:23:45.122Z,13.30
2024-02-19T03:26:11.828Z,16.10
2024-02-19T03:28:38.268Z,14.90
2024-02-19T03:31:04.960Z,13.70
2024-02-19T03:33:31.561Z,14.30
2024-02-19T03:35:58.074Z,16.30
2024-02-19T03:38:25.707Z,15.20
2024-02-19T03:40:52.174Z,15.60
2024-02-19T03:43:18.792Z,16.70
2024-02-19T03:45:45.300Z,15.20
2024-02-19T03:48:11.919Z,13.70
2024-02-19T03:50:38.424Z,15.80
2024-02-19T03:53:05.035Z,15.50
2024-02-19T03:55:31.687Z,15.90
2024-02-19T03:57:58.341Z,15.10
2024-02-19T04:00:24.953Z,16.10
2024-02-19T04:02:51.459Z,16.30
2024-02-19T04:05:17.959Z,14.10
2024-02-19T04:07:45.416Z,16.00
2024-02-19T04:10:12.059Z,16.90
2024-02-19T04:12:39.571Z,18.90
2024-02-19T04:15:06.853Z,16.10
2024-02-19T04:17:36.105Z,15.50
2024-02-19T04:20:05.324Z,16.60
2024-02-19T04:22:31.853Z,16.20
2024-02-19T04:24:58.443Z,14.30
2024-02-19T04:27:24.916Z,15.90
2024-02-19T04:29:51.388Z,16.60
2024-02-19T04:32:17.891Z,16.40
2024-02-19T04:34:45.397Z,14.60
2024-02-19T04:37:12.049Z,16.40
2024-02-19T04:39:38.639Z,16.80
2024-02-19T04:42:05.789Z,17.60
2024-02-19T04:44:32.572Z,16.70
2024-02-19T04:46:59.100Z,15.60
2024-02-19T04:49:28.580Z,15.60
2024-02-19T04:51:55.125Z,17.70
2024-02-19T04:54:22.025Z,15.60
2024-02-19T04:56:48.604Z,16.90
2024-02-19T04:59:15.213Z,20.00
2024-02-19T05:01:41.736Z,19.30
2024-02-19T05:04:08.312Z,18.70
2024-02-19T05:06:35.408Z,19.40
2024-02-19T05:09:01.939Z,19.90
2024-02-19T05:11:28.488Z,19.90
2024-02-19T05:13:55.065Z,19.50
2024-02-19T05:16:21.687Z,17.70
2024-02-19T05:18:48.329Z,18.20
2024-02-19T05:21:15.332Z,21.00
2024-02-19T05:23:41.836Z,18.80
2024-02-19T05:26:09.886Z,19.80
2024-02-19T05:28:37.848Z,17.70
2024-02-19T05:31:04.659Z,18.40
2024-02-19T05:33:31.205Z,20.10
2024-02-19T05:35:57.826Z,20.50
2024-02-19T05:38:24.721Z,16.20
2024-02-19T05:40:51.183Z,18.40
2024-02-19T05:43:17.717Z,17.70
2024-02-19T05:48:10.892Z,20.30
2024-02-19T05:50:37.514Z,20.60
2024-02-19T05:53:04.153Z,19.80
2024-02-19T05:55:30.697Z,19.70
2024-02-19T05:57:57.621Z,19.50
2024-02-19T06:00:24.140Z,20.60
2024-02-19T06:02:50.785Z,23.30
2024-02-19T06:05:17.524Z,19.60
2024-02-19T06:07:45.644Z,22.90
2024-02-19T06:10:12.275Z,21.20
2024-02-19T06:12:38.899Z,18.20
2024-02-19T06:15:05.943Z,20.70
2024-02-19T06:17:32.551Z,20.50
2024-02-19T06:19:59.297Z,21.40
2024-02-19T06:22:25.892Z,20.00
2024-02-19T06:24:52.471Z,21.00
2024-02-19T06:27:20.769Z,20.50
2024-02-19T06:29:48.338Z,21.40
2024-02-19T06:32:14.897Z,23.00
2024-02-19T06:37:13.014Z,26.20
2024-02-19T06:39:41.399Z,22.50
2024-02-19T06:42:08.640Z,17.50
2024-02-19T06:44:35.122Z,22.80
2024-02-19T06:47:01.595Z,25.10
2024-02-19T06:49:36.998Z,19.40
2024-02-19T06:52:04.058Z,25.10
2024-02-19T06:54:31.982Z,24.00
2024-02-19T06:56:59.523Z,23.60
2024-02-19T06:59:25.983Z,22.20
2024-02-19T07:02:17.558Z,22.90
2024-02-19T07:07:10.300Z,24.30
2024-02-19T07:12:17.212Z,23.30
2024-02-19T07:17:12.739Z,24.70
2024-02-19T07:19:39.355Z,22.90
2024-02-19T07:22:15.011Z,28.10
2024-02-19T07:24:41.590Z,27.90
2024-02-19T07:27:08.285Z,31.10
2024-02-19T07:29:34.808Z,25.50
2024-02-19T07:32:01.275Z,28.50
2024-02-19T07:34:42.415Z,29.90
2024-02-19T07:37:10.112Z,30.30
2024-02-19T07:39:40.385Z,27.20
2024-02-19T07:42:07.098Z,28.40
2024-02-19T07:44:46.825Z,32.40
2024-02-19T07:47:13.293Z,30.20
2024-02-19T07:49:40.077Z,36.30
2024-02-19T07:52:07.335Z,33.90
2024-02-19T07:54:33.970Z,44.30
2024-02-19T07:57:25.767Z,45.10
2024-02-19T07:59:52.309Z,39.10
2024-02-19T08:02:19.095Z,39.20
2024-02-19T08:04:45.798Z,36.60
2024-02-19T08:07:38.032Z,38.70
2024-02-19T08:10:05.659Z,42.50
2024-02-19T08:12:39.291Z,38.90
2024-02-19T08:15:11.536Z,36.60
2024-02-19T08:17:38.117Z,32.80
2024-02-19T08:20:05.575Z,38.40
2024-02-19T08:22:32.235Z,30.00
2024-02-19T08:24:59.151Z,27.20
2024-02-19T08:27:46.300Z,34.30
2024-02-19T08:30:13.143Z,33.30
2024-02-19T08:32:39.682Z,35.30
2024-02-19T08:35:06.835Z,34.70
2024-02-19T08:37:46.101Z,39.50
2024-02-19T08:40:12.782Z,35.00
2024-02-19T08:42:39.387Z,39.20
2024-02-19T08:45:06.892Z,35.60
2024-02-19T08:47:33.568Z,40.80
2024-02-19T08:50:25.003Z,34.60
2024-02-19T08:52:51.651Z,44.20
2024-02-19T08:55:18.155Z,40.50
2024-02-19T09:00:15.088Z,41.60
2024-02-19T09:02:43.501Z,34.10
2024-02-19T09:05:13.307Z,35.20
2024-02-19T09:07:39.972Z,35.90
2024-02-19T09:10:07.621Z,39.50
2024-02-19T09:12:46.300Z,33.40
2024-02-19T09:15:12.819Z,38.20
2024-02-19T09:17:39.429Z,36.40
2024-02-19T09:20:07.887Z,34.40
2024-02-19T09:22:47.286Z,37.30
2024-02-19T09:25:14.767Z,36.20
2024-02-19T09:27:41.363Z,29.80
2024-02-19T09:30:09.297Z,32.70
2024-02-19T09:32:35.897Z,32.90
2024-02-19T09:35:27.920Z,36.10
2024-02-19T09:37:54.672Z,34.90
2024-02-19T09:40:26.641Z,34.40
2024-02-19T09:43:18.711Z,33.40
2024-02-19T09:45:46.242Z,42.80
2024-02-19T09:48:14.199Z,41.10
2024-02-19T09:53:20.189Z,38.70
2024-02-19T09:55:47.233Z,38.50
2024-02-19T09:58:14.500Z,35.40
2024-02-19T10:00:41.266Z,40.30
2024-02-19T10:03:33.290Z,41.20
2024-02-19T10:05:59.872Z,47.80
2024-02-19T10:08:26.478Z,44.20
2024-02-19T10:10:57.393Z,41.10
2024-02-19T10:13:28.326Z,36.50
2024-02-19T10:15:54.888Z,34.90
2024-02-19T10:18:22.222Z,39.70
2024-02-19T10:20:53.118Z,42.10
2024-02-19T10:23:39.550Z,38.40
2024-02-19T10:26:06.099Z,34.00
2024-02-19T10:28:32.781Z,34.80
2024-02-19T10:30:59.374Z,32.40
2024-02-19T10:33:25.910Z,35.50
2024-02-19T10:36:20.805Z,31.20
2024-02-19T10:38:47.626Z,37.20
2024-02-19T10:41:14.987Z,39.20
2024-02-19T10:46:21.973Z,34.20
2024-02-19T10:48:51.433Z,34.80
2024-02-19T10:51:21.026Z,32.00
2024-02-19T10:54:05.360Z,36.10
2024-02-19T10:56:40.871Z,32.40
2024-02-19T10:59:12.368Z,38.90
2024-02-19T11:04:24.184Z,32.60
2024-02-19T11:06:57.482Z,35.70
2024-02-19T11:09:47.438Z,39.90
2024-02-19T11:12:15.137Z,43.80
2024-02-19T11:14:43.596Z,40.10
2024-02-19T11:17:10.805Z,38.60
2024-02-19T11:22:23.618Z,43.90
2024-02-19T11:24:52.069Z,36.80
2024-02-19T11:27:19.027Z,37.10
2024-02-19T11:29:48.249Z,36.10
2024-02-19T11:32:22.277Z,35.10
2024-02-19T11:34:51.734Z,36.60
2024-02-19T11:37:19.632Z,38.00
2024-02-19T11:39:46.575Z,37.30
2024-02-19T11:42:30.826Z,46.30
2024-02-19T11:44:59.912Z,35.80
2024-02-19T11:47:27.081Z,36.70
2024-02-19T11:49:53.677Z,31.90
2024-02-19T11:52:20.454Z,38.00
2024-02-19T11:55:12.105Z,36.30
2024-02-19T11:57:38.595Z,34.80
2024-02-19T12:00:08.461Z,35.50
2024-02-19T12:02:46.512Z,39.90
2024-02-19T12:05:13.271Z,47.90
2024-02-19T12:07:40.665Z,46.10
2024-02-19T12:10:11.120Z,53.20
2024-02-19T12:15:18.015Z,52.70
2024-02-19T12:20:12.722Z,51.80
2024-02-19T12:22:41.634Z,48.20
2024-02-19T12:25:17.238Z,44.80
2024-02-19T12:27:43.860Z,47.00
2024-02-19T12:30:11.140Z,49.60
2024-02-19T12:32:38.210Z,44.10
2024-02-19T12:35:06.747Z,45.30
2024-02-19T12:37:47.620Z,41.60
2024-02-19T12:40:14.954Z,37.70
2024-02-19T12:42:42.230Z,38.70
2024-02-19T12:45:10.028Z,40.60
2024-02-19T12:47:47.968Z,38.50
2024-02-19T12:50:16.640Z,37.20
2024-02-19T12:52:43.692Z,39.60
2024-02-19T12:55:10.863Z,39.40
2024-02-19T12:57:39.003Z,39.60
2024-02-19T13:00:12.150Z,39.90
2024-02-19T13:02:38.958Z,35.80
2024-02-19T13:05:06.180Z,39.50
2024-02-19T13:07:32.860Z,42.60
2024-02-19T13:09:59.973Z,35.70
2024-02-19T13:12:35.582Z,39.40
2024-02-19T13:15:02.132Z,35.70
2024-02-19T13:17:36.020Z,31.00
2024-02-19T13:20:07.772Z,33.40
2024-02-19T13:22:43.645Z,35.20
2024-02-19T13:25:10.225Z,29.70
2024-02-19T13:27:36.879Z,25.80
2024-02-19T13:30:03.872Z,25.00
2024-02-19T13:32:31.063Z,23.00
2024-02-19T13:35:23.299Z,22.50
2024-02-19T13:37:51.406Z,21.10
2024-02-19T13:40:19.224Z,20.60
2024-02-19T13:45:24.619Z,13.60
2024-02-19T13:47:59.826Z,19.10
2024-02-19T13:50:26.958Z,19.00
2024-02-19T13:53:11.987Z,24.40
2024-02-19T13:55:38.600Z,24.50
2024-02-19T13:58:05.295Z,23.10
2024-02-19T14:00:32.486Z,23.30
2024-02-19T14:02:58.932Z,37.50
2024-02-19T14:05:48.493Z,32.90
2024-02-19T14:08:15.942Z,31.50
2024-02-19T14:10:42.894Z,29.20
2024-02-19T14:15:50.376Z,33.40
2024-02-19T14:18:17.330Z,22.20
2024-02-19T14:20:44.017Z,23.80
2024-02-19T14:23:10.538Z,24.80
2024-02-19T14:25:47.894Z,21.30
2024-02-19T14:28:14.560Z,21.20
2024-02-19T14:30:41.076Z,15.40
2024-02-19T14:33:07.653Z,16.60
2024-02-19T14:35:34.465Z,12.30
2024-02-19T14:38:03.165Z,15.60
2024-02-19T14:40:29.763Z,13.60
2024-02-19T14:42:56.425Z,13.60
2024-02-19T14:45:23.386Z,15.70
2024-02-19T14:47:50.381Z,21.80
2024-02-19T14:50:17.401Z,30.30
2024-02-19T14:52:44.592Z,8.60
2024-02-19T14:55:12.784Z,14.10
2024-02-19T14:57:46.146Z,12.80
2024-02-19T15:00:21.772Z,12.10
2024-02-19T15:02:50.665Z,12.40
2024-02-19T15:05:18.500Z,12.30
2024-02-19T15:07:47.210Z,11.30
2024-02-19T15:10:16.752Z,11.90
2024-02-19T15:12:44.383Z,13.20
2024-02-19T15:15:14.213Z,13.40
2024-02-19T15:17:40.884Z,22.60
2024-02-19T15:20:10.253Z,26.20
2024-02-19T15:22:36.987Z,15.60
2024-02-19T15:25:05.055Z,9.60
2024-02-19T15:27:32.698Z,13.00
2024-02-19T15:30:00.256Z,15.30
2024-02-19T15:32:27.062Z,17.50
2024-02-19T15:34:54.267Z,19.10
2024-02-19T15:37:21.730Z,15.50
2024-02-19T15:39:48.565Z,10.40
2024-02-19T15:42:15.093Z,11.40
2024-02-19T15:44:41.593Z,16.20
2024-02-19T15:47:08.115Z,19.80
2024-02-19T15:49:34.721Z,20.00
2024-02-19T15:52:01.498Z,11.60
2024-02-19T15:54:30.135Z,13.10
2024-02-19T15:56:56.637Z,16.30
2024-02-19T15:59:23.080Z,21.50
2024-02-19T16:01:50.302Z,17.90
2024-02-19T16:04:19.877Z,21.80
2024-02-19T16:06:47.282Z,28.60
2024-02-19T16:09:14.472Z,25.60
2024-02-19T16:11:41.121Z,44.10
2024-02-19T16:14:07.694Z,27.90
2024-02-19T16:16:34.367Z,41.90
2024-02-19T16:19:02.711Z,24.70
2024-02-19T16:21:29.488Z,12.30
2024-02-19T16:23:56.599Z,11.50
2024-02-19T16:26:23.143Z,14.30
2024-02-19T16:28:51.099Z,13.50
2024-02-19T16:31:19.505Z,12.90
2024-02-19T16:33:47.427Z,12.90
2024-02-19T16:36:14.061Z,18.00
2024-02-19T16:38:42.276Z,16.90
2024-02-19T16:41:09.346Z,15.90
2024-02-19T16:43:36.257Z,16.20
2024-02-19T16:46:05.771Z,18.10
2024-02-19T16:48:39.591Z,16.80
2024-02-19T16:51:06.723Z,35.60
2024-02-19T16:53:35.134Z,12.70
2024-02-19T16:56:02.537Z,17.50
2024-02-19T16:58:33.118Z,11.90
2024-02-19T17:01:00.410Z,11.50
2024-02-19T17:03:27.626Z,12.30
2024-02-19T17:05:55.497Z,8.90
2024-02-19T17:08:29.809Z,12.10
2024-02-19T17:10:57.328Z,7.40
2024-02-19T17:13:24.593Z,7.50
2024-02-19T17:15:51.251Z,7.50
2024-02-19T17:18:18.292Z,7.30
2024-02-19T17:20:45.238Z,6.10
2024-02-19T17:23:16.997Z,6.60
2024-02-19T17:25:43.796Z,7.40
2024-02-19T17:28:10.598Z,7.10
2024-02-19T17:30:37.615Z,4.90
2024-02-19T17:33:04.324Z,7.60
2024-02-19T17:35:31.402Z,6.30
2024-02-19T17:37:58.037Z,6.40
2024-02-19T17:40:24.801Z,7.40
2024-02-19T17:42:52.269Z,9.90
2024-02-19T17:45:18.949Z,9.40
2024-02-19T17:47:47.476Z,9.60
2024-02-19T17:50:14.111Z,9.10
2024-02-19T17:52:41.212Z,8.50
2024-02-19T17:55:10.146Z,11.10
2024-02-19T17:57:36.755Z,8.00
2024-02-19T18:00:04.966Z,9.40
2024-02-19T18:02:31.468Z,9.80
2024-02-19T18:05:01.166Z,9.90
2024-02-19T18:07:28.935Z,12.30
2024-02-19T18:09:56.864Z,8.20
2024-02-19T18:12:23.542Z,5.50
2024-02-19T18:14:50.164Z,7.30
2024-02-19T18:17:16.678Z,7.40
2024-02-19T18:22:12.428Z,9.10
2024-02-19T18:24:39.172Z,10.00
2024-02-19T18:27:08.164Z,6.90
2024-02-19T18:29:36.481Z,7.70
2024-02-19T18:32:03.815Z,7.40
2024-02-19T18:34:31.843Z,6.10
2024-02-19T18:37:00.265Z,7.70
2024-02-19T18:39:32.798Z,8.50
2024-02-19T18:41:59.670Z,9.40
2024-02-19T18:44:26.278Z,9.50
2024-02-19T18:46:52.792Z,7.90
2024-02-19T18:49:21.612Z,8.80
2024-02-19T18:51:49.039Z,7.20
2024-02-19T18:54:16.217Z,6.70
2024-02-19T18:56:43.351Z,6.50
2024-02-19T18:59:10.045Z,6.80
2024-02-19T19:01:37.059Z,20.30
2024-02-19T19:04:04.591Z,15.50
2024-02-19T19:06:31.677Z,15.50
2024-02-19T19:09:06.522Z,11.60
2024-02-19T19:11:35.989Z,10.70
2024-02-19T19:14:03.581Z,10.10
2024-02-19T19:16:31.233Z,9.80
2024-02-19T19:19:04.049Z,7.10
2024-02-19T19:21:37.849Z,7.60
2024-02-19T19:24:07.328Z,6.90
2024-02-19T19:26:35.186Z,6.20
2024-02-19T19:29:02.248Z,8.80
2024-02-19T19:31:29.143Z,9.40
2024-02-19T19:33:56.008Z,6.60
2024-02-19T19:36:22.618Z,8.20
2024-02-19T19:38:49.132Z,6.80
2024-02-19T19:41:15.792Z,7.30
2024-02-19T19:43:42.457Z,7.00
2024-02-19T19:46:09.286Z,7.00
2024-02-19T19:48:36.523Z,10.00
2024-02-19T19:51:03.369Z,9.90
2024-02-19T19:53:31.396Z,9.10
2024-02-19T19:55:57.902Z,10.20
2024-02-19T19:58:31.902Z,10.30
2024-02-19T20:01:01.015Z,9.20
2024-02-19T20:03:27.661Z,14.80
2024-02-19T20:05:54.659Z,15.70
2024-02-19T20:08:21.595Z,15.60
2024-02-19T20:10:49.101Z,10.20
2024-02-19T20:13:16.004Z,10.40
2024-02-19T20:15:42.574Z,8.20
2024-02-19T20:18:09.999Z,10.80
2024-02-19T20:20:36.826Z,10.80
2024-02-19T20:23:03.806Z,10.20
2024-02-19T20:25:31.550Z,9.40
2024-02-19T20:28:01.753Z,8.60
2024-02-19T20:30:28.278Z,11.40
2024-02-19T20:32:54.931Z,8.10
2024-02-19T20:35:21.807Z,7.60
2024-02-19T20:37:48.378Z,9.40
2024-02-19T20:40:14.998Z,9.20
2024-02-19T20:42:41.602Z,9.60
2024-02-19T20:45:14.013Z,12.60
2024-02-19T20:47:41.671Z,8.90
2024-02-19T20:50:10.712Z,10.70
2024-02-19T20:52:38.208Z,18.10
2024-02-19T20:55:06.108Z,10.20
2024-02-19T20:57:34.925Z,9.40
2024-02-19T21:00:04.348Z,9.80
2024-02-19T21:02:32.230Z,8.10
2024-02-19T21:04:59.422Z,8.90
2024-02-19T21:07:26.030Z,8.60
2024-02-19T21:09:57.631Z,18.40
2024-02-19T21:12:24.633Z,12.40
2024-02-19T21:14:51.108Z,8.60
2024-02-19T21:17:17.593Z,7.60
2024-02-19T21:19:44.134Z,7.90
2024-02-19T21:22:10.714Z,7.20
2024-02-19T21:24:37.267Z,7.80
2024-02-19T21:27:05.204Z,7.10
2024-02-19T21:29:31.743Z,8.10
2024-02-19T21:31:59.076Z,7.50
2024-02-19T21:34:25.691Z,11.20
2024-02-19T21:36:54.005Z,8.50
2024-02-19T21:39:20.710Z,10.70
2024-02-19T21:41:48.085Z,7.80
2024-02-19T21:44:14.630Z,8.50
2024-02-19T21:46:42.440Z,9.20
2024-02-19T21:49:09.420Z,11.10
2024-02-19T21:51:36.060Z,10.50
2024-02-19T21:54:02.539Z,8.50
2024-02-19T21:56:29.025Z,8.90
2024-02-19T21:58:55.793Z,6.60
2024-02-19T22:01:22.924Z,9.00
2024-02-19T22:03:50.600Z,8.40
2024-02-19T22:06:17.728Z,8.20
2024-02-19T22:08:44.621Z,9.50
2024-02-19T22:11:11.548Z,10.60
2024-02-19T22:13:38.181Z,11.10
2024-02-19T22:16:05.329Z,9.50
2024-02-19T22:18:31.932Z,7.40
2024-02-19T22:20:58.424Z,8.30
2024-02-19T22:23:25.124Z,13.40
2024-02-19T22:25:51.689Z,9.90
2024-02-19T22:28:18.349Z,9.70
2024-02-19T22:30:44.997Z,10.80
2024-02-19T22:33:11.771Z,10.30
2024-02-19T22:35:38.405Z,12.10
2024-02-19T22:38:05.127Z,13.70
2024-02-19T22:40:33.014Z,17.90
2024-02-19T22:42:59.943Z,16.60
2024-02-19T22:45:26.492Z,16.60
2024-02-19T22:47:53.002Z,13.80
2024-02-19T22:50:19.588Z,13.70
2024-02-19T22:52:47.956Z,13.40
2024-02-19T22:55:12.704Z,12.90
2024-02-19T22:57:39.341Z,11.60
2024-02-19T23:00:16.840Z,10.60
2024-02-19T23:02:43.393Z,9.90
2024-02-19T23:05:09.933Z,12.50
2024-02-19T23:07:36.491Z,13.30
2024-02-19T23:10:03.095Z,13.20
2024-02-19T23:12:29.596Z,14.80
2024-02-19T23:14:56.035Z,14.00
2024-02-19T23:17:22.541Z,14.10
2024-02-19T23:19:49.166Z,12.50
2024-02-19T23:22:15.863Z,13.00
2024-02-19T23:24:42.336Z,13.90
2024-02-19T23:27:11.378Z,13.80
2024-02-19T23:29:37.932Z,15.10
2024-02-19T23:32:04.882Z,13.30
2024-02-19T23:34:31.735Z,13.30
2024-02-19T23:36:58.346Z,12.40
2024-02-19T23:39:24.944Z,15.10
2024-02-19T23:41:51.491Z,11.10
2024-02-19T23:44:17.981Z,11.30
2024-02-19T23:46:45.308Z,12.10
2024-02-19T23:49:13.196Z,10.60
2024-02-19T23:51:39.761Z,12.20
2024-02-19T23:54:07.999Z,10.90
2024-02-19T23:56:34.475Z,12.30
2024-02-19T23:59:01.092Z,13.50
